Time;durP1;ratioP1;P1;durP2;ratioP2;P2;SDS_P1;SDS_P2;PMS_P1;PMS_P2;Temp;Humidity;BMP_temperature;BMP_pressure;BME280_temperature;BME280_humidity;BME280_pressure;Samples;Min_cycle;Max_cycle;Signal;HPM_P1;HPM_P2
2023/12/09 00:01:17;;;;;;;32.40;15.38;;;;;;;3.67;100.00;97734.13;5131906;27;20022;-74
2023/12/09 00:03:42;;;;;;;28.63;15.02;;;;;;;3.66;100.00;97732.41;5121347;27;20023;-74
2023/12/09 00:06:08;;;;;;;32.80;15.82;;;;;;;3.62;100.00;97733.41;5127334;27;20019;-75
2023/12/09 00:08:34;;;;;;;26.98;13.95;;;;;;;3.59;100.00;97725.56;5104905;27;20027;-75
2023/12/09 00:11:00;;;;;;;37.85;16.33;;;;;;;3.49;100.00;97721.47;5125117;27;20031;-74
2023/12/09 00:13:25;;;;;;;33.03;16.40;;;;;;;3.64;100.00;97731.56;5113276;27;20027;-75
2023/12/09 00:15:51;;;;;;;33.15;15.90;;;;;;;3.70;100.00;97729.59;5107562;27;20035;-75
2023/12/09 00:18:16;;;;;;;35.55;16.20;;;;;;;3.63;100.00;97729.88;5121805;27;20110;-74
2023/12/09 00:20:42;;;;;;;35.30;17.05;;;;;;;3.71;100.00;97725.19;5107486;27;20446;-74
2023/12/09 00:23:07;;;;;;;39.15;17.48;;;;;;;3.68;100.00;97731.44;5113266;27;20042;-74
2023/12/09 00:25:33;;;;;;;31.13;16.20;;;;;;;3.68;100.00;97717.34;5125769;27;20473;-73
2023/12/09 00:27:59;;;;;;;32.15;16.35;;;;;;;3.68;100.00;97723.50;5120926;27;20076;-74
2023/12/09 00:30:25;;;;;;;33.03;15.90;;;;;;;3.61;100.00;97729.03;5121725;27;20023;-75
2023/12/09 00:32:51;;;;;;;29.60;16.10;;;;;;;3.57;100.00;97719.47;5130181;27;20121;-74
2023/12/09 00:35:16;;;;;;;29.52;15.82;;;;;;;3.63;100.00;97730.69;5115749;27;20031;-74
2023/12/09 00:37:42;;;;;;;36.47;16.38;;;;;;;3.57;100.00;97720.31;5095159;28;20073;-75
2023/12/09 00:40:08;;;;;;;36.05;17.13;;;;;;;3.68;100.00;97734.09;5101440;28;20489;-74
2023/12/09 00:42:33;;;;;;;42.83;18.98;;;;;;;3.51;100.00;97735.50;5115287;27;20084;-75
2023/12/09 00:44:59;;;;;;;39.28;18.50;;;;;;;3.42;100.00;97730.50;5112889;28;20035;-76
2023/12/09 00:47:25;;;;;;;37.20;18.63;;;;;;;3.52;100.00;97742.53;5124610;27;20085;-74
2023/12/09 00:49:50;;;;;;;35.70;17.85;;;;;;;3.53;100.00;97739.00;5112104;28;20031;-75
2023/12/09 00:52:16;;;;;;;40.28;19.58;;;;;;;3.51;100.00;97739.03;5109603;27;20096;-74
2023/12/09 00:54:41;;;;;;;43.25;20.25;;;;;;;3.41;100.00;97745.53;5119910;28;20482;-75
2023/12/09 00:57:07;;;;;;;36.85;18.52;;;;;;;3.40;100.00;97737.63;5110301;28;20077;-75
2023/12/09 00:59:34;;;;;;;38.28;19.23;;;;;;;3.34;100.00;97743.97;5095934;28;20036;-74
2023/12/09 01:02:00;;;;;;;40.42;18.80;;;;;;;3.37;100.00;97743.88;5129936;28;20074;-74
2023/12/09 01:04:25;;;;;;;39.97;18.75;;;;;;;3.41;100.00;97752.59;5130036;28;20050;-74
2023/12/09 01:06:51;;;;;;;38.85;19.42;;;;;;;3.42;100.00;97747.22;5095538;28;20055;-73
2023/12/09 01:09:17;;;;;;;38.08;18.05;;;;;;;3.47;100.00;97742.69;5121189;28;20034;-74
2023/12/09 01:11:43;;;;;;;29.30;16.45;;;;;;;3.42;100.00;97747.22;5116920;28;20547;-74
2023/12/09 01:14:08;;;;;;;37.42;18.30;;;;;;;3.39;100.00;97749.97;5123212;28;20019;-74
2023/12/09 01:16:34;;;;;;;41.85;17.40;;;;;;;3.39;100.00;97743.81;5119449;27;20031;-74
2023/12/09 01:18:59;;;;;;;36.00;17.30;;;;;;;3.41;100.00;97745.53;5126192;28;20019;-74
2023/12/09 01:21:25;;;;;;;33.40;16.73;;;;;;;3.45;100.00;97748.91;5115167;28;20501;-73
2023/12/09 01:23:50;;;;;;;35.67;17.88;;;;;;;3.47;100.00;97741.81;5120005;28;20034;-75
2023/12/09 01:26:16;;;;;;;36.22;17.33;;;;;;;3.39;100.00;97739.41;5109516;28;20026;-75
2023/12/09 01:28:42;;;;;;;33.85;15.88;;;;;;;3.37;100.00;97738.59;5115755;27;20031;-75
2023/12/09 01:31:07;;;;;;;35.30;16.52;;;;;;;3.32;100.00;97727.31;5131907;27;20027;-74
2023/12/09 01:33:33;;;;;;;35.67;16.92;;;;;;;3.36;100.00;97741.25;5118500;27;20088;-75
2023/12/09 01:35:58;;;;;;;38.90;18.83;;;;;;;3.36;100.00;97738.63;5122666;27;20466;-74
2023/12/09 01:38:24;;;;;;;35.80;17.88;;;;;;;3.37;100.00;97730.66;5096257;28;20035;-74
2023/12/09 01:40:53;;;;;;;33.75;17.55;;;;;;;3.34;100.00;97736.03;5121469;27;20061;-73
2023/12/09 01:43:19;;;;;;;41.83;17.77;;;;;;;3.37;100.00;97738.59;5121557;27;20111;-74
2023/12/09 01:45:45;;;;;;;32.72;17.40;;;;;;;3.31;100.00;97732.63;5125072;27;20119;-73
2023/12/09 01:48:11;;;;;;;34.15;15.52;;;;;;;3.34;100.00;97733.41;5130594;27;20386;-73
2023/12/09 01:50:37;;;;;;;39.10;18.60;;;;;;;3.36;100.00;97726.28;5124864;27;20256;-73
2023/12/09 01:53:03;;;;;;;34.70;16.48;;;;;;;3.39;100.00;97725.31;5115678;27;20435;-74
2023/12/09 01:55:28;;;;;;;29.88;15.18;;;;;;;3.43;100.00;97727.81;5130469;27;20023;-74
2023/12/09 01:57:54;;;;;;;29.77;15.05;;;;;;;3.48;100.00;97736.47;5105368;28;20047;-73
2023/12/09 02:00:20;;;;;;;30.98;15.38;;;;;;;3.48;100.00;97719.72;5125324;27;20023;-73
2023/12/09 02:02:46;;;;;;;31.25;15.35;;;;;;;3.47;100.00;97718.91;5112789;28;20118;-74
2023/12/09 02:05:11;;;;;;;32.80;16.08;;;;;;;3.51;100.00;97727.56;5130791;27;20038;-73
2023/12/09 02:07:37;;;;;;;32.28;15.75;;;;;;;3.54;100.00;97725.69;5119637;27;20479;-73
2023/12/09 02:10:04;;;;;;;31.48;15.60;;;;;;;3.59;100.00;97734.38;5110266;28;20418;-73
2023/12/09 02:12:33;;;;;;;31.40;15.60;;;;;;;3.56;100.00;97713.31;5122554;27;20114;-74
2023/12/09 02:15:03;;;;;;;31.75;15.52;;;;;;;3.56;100.00;97718.59;5131035;27;20451;-74
2023/12/09 02:17:39;;;;;;;33.03;15.50;;;;;;;3.52;100.00;97722.25;5129221;27;20103;-73
2023/12/09 02:20:06;;;;;;;35.80;16.05;;;;;;;3.50;100.00;97723.22;5129158;27;20138;-73
2023/12/09 02:22:32;;;;;;;33.65;16.10;;;;;;;3.55;100.00;97726.56;5112240;28;20027;-74
2023/12/09 02:24:57;;;;;;;33.50;15.45;;;;;;;3.58;100.00;97723.84;5113387;28;20027;-74
2023/12/09 02:27:39;;;;;;;26.83;14.90;;;;;;;3.54;100.00;97720.41;5124472;27;20019;-74
2023/12/09 02:30:29;;;;;;;32.55;16.25;;;;;;;3.48;100.00;97712.66;5116091;27;20019;-74
2023/12/09 02:32:56;;;;;;;27.73;14.88;;;;;;;3.57;100.00;97720.31;5120492;27;20069;-75
2023/12/09 02:35:24;;;;;;;33.63;14.90;;;;;;;3.59;100.00;97707.06;5101765;28;20529;-74
2023/12/09 02:37:50;;;;;;;27.63;14.02;;;;;;;3.60;100.00;97717.56;5112004;28;20565;-73
2023/12/09 02:40:17;;;;;;;32.90;15.73;;;;;;;3.60;100.00;97714.94;5112846;28;20084;-74
2023/12/09 02:42:43;;;;;;;32.10;16.52;;;;;;;3.63;100.00;97708.72;5111768;28;20015;-74
2023/12/09 02:45:10;;;;;;;32.55;16.70;;;;;;;3.61;100.00;97708.75;5128559;27;20401;-75
2023/12/09 02:47:36;;;;;;;28.48;14.65;;;;;;;3.59;100.00;97718.50;5111680;27;20027;-74
2023/12/09 02:50:02;;;;;;;30.83;13.68;;;;;;;3.60;100.00;97717.56;5111876;28;20023;-74
2023/12/09 02:52:28;;;;;;;27.55;14.88;;;;;;;3.60;100.00;97712.28;5123674;27;20023;-74
2023/12/09 02:54:54;;;;;;;35.60;15.95;;;;;;;3.64;100.00;97713.94;5130785;27;20030;-75
2023/12/09 02:57:19;;;;;;;28.60;15.52;;;;;;;3.59;100.00;97722.94;5106105;27;20044;-74
2023/12/09 02:59:45;;;;;;;26.92;13.50;;;;;;;3.63;100.00;97719.28;5100746;28;20047;-74
2023/12/09 03:02:11;;;;;;;26.23;13.75;;;;;;;3.64;100.00;97713.94;5111375;28;20031;-75
2023/12/09 03:04:36;;;;;;;29.83;15.18;;;;;;;3.63;100.00;97720.13;5130113;27;20083;-74
2023/12/09 03:07:02;;;;;;;30.25;15.35;;;;;;;3.59;100.00;97715.00;5098339;28;20026;-75
2023/12/09 03:09:28;;;;;;;31.02;15.55;;;;;;;3.61;100.00;97711.38;5129365;27;20023;-74
2023/12/09 03:11:53;;;;;;;32.33;15.95;;;;;;;3.59;100.00;97707.06;5112610;28;20027;-75
2023/12/09 03:14:19;;;;;;;31.50;15.48;;;;;;;3.62;100.00;97712.25;5119535;27;20460;-74
2023/12/09 03:16:44;;;;;;;33.05;15.95;;;;;;;3.55;100.00;97706.28;5125979;27;20083;-75
2023/12/09 03:19:10;;;;;;;32.67;16.98;;;;;;;3.57;100.00;97715.03;5114375;27;20024;-75
2023/12/09 03:21:36;;;;;;;36.25;16.55;;;;;;;3.45;100.00;97715.41;5114583;27;20491;-74
2023/12/09 03:24:02;;;;;;;34.08;17.67;;;;;;;3.37;100.00;97712.16;5124343;27;20474;-74
2023/12/09 03:26:28;;;;;;;44.80;22.08;;;;;;;3.40;100.00;97724.41;5131256;27;20529;-75
2023/12/09 03:28:53;;;;;;;36.15;17.95;;;;;;;3.44;100.00;97716.34;5099852;28;20107;-75
2023/12/09 03:31:19;;;;;;;38.15;17.92;;;;;;;3.55;100.00;97716.00;5127589;27;20026;-75
2023/12/09 03:33:44;;;;;;;39.80;17.77;;;;;;;3.51;100.00;97715.22;5115724;27;20531;-75
2023/12/09 03:36:14;;;;;;;38.28;18.92;;;;;;;3.50;100.00;97716.16;5131371;27;20065;-75
2023/12/09 03:38:40;;;;;;;41.03;19.40;;;;;;;3.52;100.00;97701.09;5125473;27;20034;-75
2023/12/09 03:41:06;;;;;;;38.22;19.30;;;;;;;3.60;100.00;97714.09;5125272;27;20016;-75
2023/12/09 03:43:32;;;;;;;39.60;18.38;;;;;;;3.63;100.00;97709.53;5104425;27;20480;-75
2023/12/09 03:45:59;;;;;;;41.33;19.52;;;;;;;3.64;100.00;97711.28;5128625;27;20093;-75
2023/12/09 03:48:28;;;;;;;37.00;17.65;;;;;;;3.64;100.00;97710.41;5114129;27;20023;-75
2023/12/09 03:50:54;;;;;;;30.02;14.85;;;;;;;3.61;100.00;97708.75;5094660;28;20399;-75
2023/12/09 03:53:19;;;;;;;31.67;14.63;;;;;;;3.66;100.00;97704.16;5119184;27;20034;-75
2023/12/09 03:55:45;;;;;;;33.45;15.48;;;;;;;3.60;100.00;97707.00;5112351;27;20023;-75
2023/12/09 03:58:11;;;;;;;32.60;15.30;;;;;;;3.58;100.00;97714.13;5117948;27;20019;-75
2023/12/09 04:00:36;;;;;;;36.10;17.83;;;;;;;3.56;100.00;97713.31;5103994;28;20107;-75
2023/12/09 04:03:03;;;;;;;36.45;17.20;;;;;;;3.64;100.00;97718.34;5106537;27;20474;-75
2023/12/09 04:05:29;;;;;;;33.80;16.92;;;;;;;3.57;100.00;97717.66;5120704;27;20057;-76
2023/12/09 04:07:54;;;;;;;34.90;17.73;;;;;;;3.34;100.00;97712.25;5119049;27;20047;-74
2023/12/09 04:10:20;;;;;;;33.10;16.30;;;;;;;3.30;100.00;97718.53;5122929;27;20031;-76
2023/12/09 04:12:45;;;;;;;40.05;17.88;;;;;;;3.30;100.00;97723.81;5126267;27;20039;-74
2023/12/09 04:15:11;;;;;;;31.33;15.35;;;;;;;3.26;100.00;97720.41;5119264;27;20141;-74
2023/12/09 04:17:37;;;;;;;29.45;15.18;;;;;;;3.13;100.00;97713.78;5120466;27;20027;-74
2023/12/09 04:20:08;;;;;;;34.53;16.20;;;;;;;3.11;100.00;97718.22;5122126;27;20486;-74
2023/12/09 04:22:36;;;;;;;31.38;17.02;;;;;;;3.22;100.00;97734.63;5123211;27;20023;-75
2023/12/09 04:25:04;;;;;;;34.40;17.15;;;;;;;3.29;100.00;97732.69;5117793;27;20508;-75
2023/12/09 04:27:32;;;;;;;37.47;18.70;;;;;;;3.40;100.00;97735.84;5121703;27;20022;-75
2023/12/09 04:29:58;;;;;;;39.83;18.88;;;;;;;3.37;100.00;97719.22;5121916;27;20114;-74
2023/12/09 04:32:23;;;;;;;39.00;18.80;;;;;;;3.41;100.00;97723.50;5126226;27;20027;-74
2023/12/09 04:34:49;;;;;;;39.25;19.92;;;;;;;3.35;100.00;97726.34;5125706;27;20027;-74
2023/12/09 04:37:15;;;;;;;44.28;21.23;;;;;;;3.35;100.00;97718.41;5119130;27;20051;-75
2023/12/09 04:39:40;;;;;;;38.97;18.70;;;;;;;3.33;100.00;97720.22;5112874;27;20035;-75
2023/12/09 04:42:06;;;;;;;40.72;18.92;;;;;;;3.25;100.00;97723.09;5121561;27;20061;-75
2023/12/09 04:44:31;;;;;;;38.60;19.95;;;;;;;3.26;100.00;97730.13;5115060;27;20034;-74
2023/12/09 04:46:57;;;;;;;34.60;17.13;;;;;;;3.26;100.00;97741.53;5122284;27;20019;-74
2023/12/09 04:49:23;;;;;;;38.05;18.25;;;;;;;3.24;100.00;97747.78;5105275;28;20057;-75
2023/12/09 04:51:48;;;;;;;34.33;17.23;;;;;;;3.29;100.00;97745.91;5120730;28;20495;-75
2023/12/09 04:54:14;;;;;;;39.17;18.98;;;;;;;3.38;100.00;97753.53;5122658;28;20023;-75
2023/12/09 04:56:39;;;;;;;45.42;18.55;;;;;;;3.34;100.00;97753.66;5108526;28;20050;-75
2023/12/09 04:59:05;;;;;;;38.97;18.35;;;;;;;3.40;100.00;97754.34;5116502;28;20037;-75
2023/12/09 05:01:30;;;;;;;34.88;17.30;;;;;;;3.36;100.00;97758.00;5118027;28;20100;-75
2023/12/09 05:03:56;;;;;;;43.92;17.85;;;;;;;3.37;100.00;97753.59;5117438;27;20026;-75
2023/12/09 05:06:22;;;;;;;35.45;17.80;;;;;;;3.46;100.00;97759.47;5108729;27;20122;-76
2023/12/09 05:08:47;;;;;;;60.83;28.67;;;;;;;3.46;100.00;97756.81;5127842;27;20027;-75
2023/12/09 05:11:13;;;;;;;45.47;19.52;;;;;;;3.48;100.00;97756.75;5125019;27;20045;-74
2023/12/09 05:13:38;;;;;;;93.78;42.88;;;;;;;3.46;100.00;97762.09;5116895;27;20027;-74
2023/12/09 05:16:05;;;;;;;84.90;37.47;;;;;;;3.40;100.00;97764.06;5121285;27;20110;-75
2023/12/09 05:18:33;;;;;;;58.83;26.88;;;;;;;3.28;100.00;97765.31;5122059;27;20502;-74
2023/12/09 05:20:59;;;;;;;57.83;27.23;;;;;;;3.38;100.00;97772.06;5118973;27;20027;-76
2023/12/09 05:23:25;;;;;;;58.92;28.23;;;;;;;3.42;100.00;97768.38;5121982;27;20049;-75
2023/12/09 05:25:51;;;;;;;65.38;27.45;;;;;;;3.39;100.00;97773.75;5123107;27;20023;-75
2023/12/09 05:28:18;;;;;;;62.88;28.67;;;;;;;3.46;100.00;97777.09;5123150;27;20023;-75
2023/12/09 05:30:43;;;;;;;206.05;102.32;;;;;;;3.49;100.00;97777.00;5101573;28;20066;-74
2023/12/09 05:33:09;;;;;;;70.85;30.08;;;;;;;3.50;100.00;97776.09;5120680;27;20063;-75
2023/12/09 05:35:35;;;;;;;52.28;25.85;;;;;;;3.54;100.00;97783.00;5105761;28;20423;-74
2023/12/09 05:38:01;;;;;;;54.45;26.15;;;;;;;3.53;100.00;97776.00;5098471;28;20026;-74
2023/12/09 05:40:27;;;;;;;61.88;28.30;;;;;;;3.52;100.00;97780.41;5120959;27;20027;-74
2023/12/09 05:42:52;;;;;;;55.08;27.60;;;;;;;3.51;100.00;97781.31;5105769;28;20080;-74
2023/12/09 05:45:18;;;;;;;56.70;27.40;;;;;;;3.50;100.00;97781.38;5126761;27;20432;-74
2023/12/09 05:47:43;;;;;;;86.50;39.50;;;;;;;3.46;100.00;97779.75;5115780;27;20051;-73
2023/12/09 05:50:10;;;;;;;59.25;26.85;;;;;;;3.42;100.00;97776.31;5126573;27;20027;-75
2023/12/09 05:52:35;;;;;;;59.47;27.88;;;;;;;3.47;100.00;97784.13;5120172;27;20088;-73
2023/12/09 05:55:01;;;;;;;58.35;25.48;;;;;;;3.44;100.00;97777.16;5134122;27;20030;-75
2023/12/09 05:57:26;;;;;;;54.67;25.13;;;;;;;3.53;100.00;97791.88;5129400;27;20055;-74
2023/12/09 05:59:52;;;;;;;49.35;24.52;;;;;;;3.59;100.00;97789.91;5101493;28;20131;-74
2023/12/09 06:02:18;;;;;;;75.07;36.63;;;;;;;3.60;100.00;97782.84;5126820;27;20534;-76
2023/12/09 06:04:43;;;;;;;59.95;28.80;;;;;;;3.60;100.00;97783.69;5115294;27;20024;-75
2023/12/09 06:07:09;;;;;;;43.67;20.27;;;;;;;3.56;100.00;97770.63;5118417;27;20102;-75
2023/12/09 06:09:34;;;;;;;41.83;20.55;;;;;;;3.57;100.00;97782.94;5122276;27;20414;-75
2023/12/09 06:12:00;;;;;;;41.25;19.08;;;;;;;3.50;100.00;97765.53;5126973;27;20513;-75
2023/12/09 06:14:25;;;;;;;36.70;16.50;;;;;;;3.60;100.00;97783.69;5129788;27;20015;-74
2023/12/09 06:16:51;;;;;;;50.45;22.85;;;;;;;3.57;100.00;97777.66;5124290;27;20029;-75
2023/12/09 06:19:17;;;;;;;32.30;16.65;;;;;;;3.64;100.00;97782.69;5123032;27;20049;-76
2023/12/09 06:21:42;;;;;;;46.40;19.98;;;;;;;3.58;100.00;97782.88;5128503;27;20106;-75
2023/12/09 06:24:08;;;;;;;51.05;20.98;;;;;;;3.55;100.00;97784.75;5133129;27;20176;-76
2023/12/09 06:26:33;;;;;;;42.92;20.10;;;;;;;3.65;100.00;97787.06;5130527;27;20015;-74
2023/12/09 06:28:59;;;;;;;40.88;19.40;;;;;;;3.58;100.00;97782.00;5119309;27;20103;-74
2023/12/09 06:31:25;;;;;;;36.97;17.48;;;;;;;3.66;100.00;97788.78;5128820;27;20058;-75
2023/12/09 06:33:50;;;;;;;57.92;28.90;;;;;;;3.69;100.00;97782.56;5121997;27;20113;-76
2023/12/09 06:36:16;;;;;;;37.67;17.90;;;;;;;3.70;100.00;97784.28;5103330;27;20110;-75
2023/12/09 06:38:41;;;;;;;46.40;21.85;;;;;;;3.76;100.00;97787.59;5117178;27;20027;-76
2023/12/09 06:41:07;;;;;;;38.40;19.40;;;;;;;3.87;100.00;97797.84;5115466;27;20039;-75
2023/12/09 06:43:33;;;;;;;31.98;16.83;;;;;;;3.90;100.00;97799.53;5103828;28;20028;-75
2023/12/09 06:46:00;;;;;;;34.03;17.92;;;;;;;3.83;100.00;97797.09;5122436;27;20384;-74
2023/12/09 06:48:26;;;;;;;36.20;18.52;;;;;;;3.81;100.00;97798.06;5133425;27;20350;-74
2023/12/09 06:50:52;;;;;;;37.08;18.00;;;;;;;3.76;100.00;97799.94;5122155;27;20027;-74
2023/12/09 06:53:17;;;;;;;36.78;18.10;;;;;;;3.92;100.00;97810.94;5118551;27;20015;-75
2023/12/09 06:55:43;;;;;;;38.42;19.23;;;;;;;3.86;100.00;97816.41;5126555;27;20030;-75
2023/12/09 06:58:08;;;;;;;56.47;26.63;;;;;;;3.90;100.00;97812.75;5124866;27;20050;-75
2023/12/09 07:00:34;;;;;;;43.40;22.05;;;;;;;3.99;100.00;97820.41;5127896;27;20502;-75
2023/12/09 07:03:00;;;;;;;51.97;21.90;;;;;;;4.02;100.00;97823.84;5131766;27;20031;-75
2023/12/09 07:05:26;;;;;;;39.58;19.05;;;;;;;4.02;100.00;97822.97;5125087;27;20479;-76
2023/12/09 07:07:51;;;;;;;41.25;20.90;;;;;;;4.10;100.00;97835.03;5111895;27;20032;-76
2023/12/09 07:10:17;;;;;;;48.80;22.77;;;;;;;4.17;100.00;97822.47;5126495;27;20427;-75
2023/12/09 07:12:43;;;;;;;52.67;24.38;;;;;;;4.19;100.00;97820.63;5119485;27;20024;-75
2023/12/09 07:15:09;;;;;;;35.35;18.73;;;;;;;4.13;100.00;97815.53;5123983;27;20027;-75
2023/12/09 07:17:35;;;;;;;33.90;16.85;;;;;;;4.05;100.00;97817.56;5126136;27;20030;-74
2023/12/09 07:20:00;;;;;;;32.67;16.17;;;;;;;4.14;100.00;97825.22;5114405;27;20035;-75
2023/12/09 07:22:27;;;;;;;33.50;16.10;;;;;;;4.12;100.00;97825.25;5131410;27;20130;-75
2023/12/09 07:24:52;;;;;;;28.52;14.88;;;;;;;4.15;100.00;97816.38;5122011;27;20027;-75
2023/12/09 07:27:18;;;;;;;34.28;16.15;;;;;;;3.97;100.00;97827.53;5121811;27;20383;-76
2023/12/09 07:29:44;;;;;;;28.85;16.42;;;;;;;3.89;100.00;97819.84;5122942;27;20079;-75
2023/12/09 07:32:10;;;;;;;33.80;17.48;;;;;;;3.91;100.00;97822.44;5120451;27;20027;-76
2023/12/09 07:34:35;;;;;;;37.38;19.15;;;;;;;4.01;100.00;97821.22;5127328;27;20039;-73
2023/12/09 07:37:01;;;;;;;35.58;17.40;;;;;;;4.20;100.00;97832.97;5113735;27;20030;-75
2023/12/09 07:39:27;;;;;;;41.22;19.90;;;;;;;4.24;100.00;97818.72;5125522;27;20023;-76
2023/12/09 07:41:52;;;;;;;43.67;20.65;;;;;;;4.38;100.00;97829.72;5120917;27;20022;-76
2023/12/09 07:44:19;;;;;;;49.95;21.52;;;;;;;4.48;100.00;97833.78;5123951;27;20031;-77
2023/12/09 07:46:45;;;;;;;49.17;23.05;;;;;;;4.45;100.00;97825.94;5127040;27;20026;-76
2023/12/09 07:49:11;;;;;;;52.75;25.05;;;;;;;4.26;100.00;97827.47;5114855;27;20016;-76
2023/12/09 07:51:37;;;;;;;48.35;22.50;;;;;;;4.22;100.00;97831.13;5110467;28;20031;-74
2023/12/09 07:54:03;;;;;;;35.58;18.75;;;;;;;4.18;100.00;97829.50;5117042;27;20023;-80
2023/12/09 07:56:28;;;;;;;40.72;17.58;;;;;;;4.14;100.00;97827.88;5114877;27;20050;-74
2023/12/09 07:58:54;;;;;;;48.17;21.20;;;;;;;4.25;100.00;97831.88;5131675;27;20106;-74
2023/12/09 08:01:19;;;;;;;45.92;22.30;;;;;;;4.32;100.00;97840.50;5119804;27;20072;-74
2023/12/09 08:03:45;;;;;;;33.90;17.75;;;;;;;4.37;100.00;97833.25;5090368;28;20035;-74
2023/12/09 08:06:11;;;;;;;32.22;14.63;;;;;;;4.37;100.00;97839.44;5090130;28;20044;-73
2023/12/09 08:08:38;;;;;;;30.63;13.77;;;;;;;4.33;100.00;97844.88;5114664;27;20039;-73
2023/12/09 08:11:04;;;;;;;27.48;12.98;;;;;;;4.30;100.00;97845.00;5123094;27;20031;-75
2023/12/09 08:13:30;;;;;;;29.73;14.65;;;;;;;4.25;100.00;97858.34;5127517;27;20474;-73
2023/12/09 08:15:55;;;;;;;31.25;15.48;;;;;;;4.25;100.00;97853.06;5127297;27;20042;-73
2023/12/09 08:18:21;;;;;;;30.00;14.38;;;;;;;4.31;100.00;97854.66;5127361;27;20023;-73
2023/12/09 08:20:47;;;;;;;27.80;13.82;;;;;;;4.45;100.00;97846.25;5094519;28;20039;-75
2023/12/09 08:23:13;;;;;;;28.63;13.82;;;;;;;4.53;100.00;97841.56;5109147;28;20486;-74
2023/12/09 08:25:39;;;;;;;32.17;14.85;;;;;;;4.70;100.00;97844.53;5127338;27;20099;-75
2023/12/09 08:28:05;;;;;;;35.70;15.75;;;;;;;4.72;100.00;97854.16;5127682;27;20473;-76
2023/12/09 08:30:32;;;;;;;31.95;14.95;;;;;;;4.69;100.00;97846.31;5110283;27;20027;-76
2023/12/09 08:32:58;;;;;;;32.75;15.23;;;;;;;4.65;100.00;97849.97;5127563;27;20027;-76
2023/12/09 08:35:24;;;;;;;34.33;15.70;;;;;;;4.66;100.00;97848.19;5126840;27;20629;-76
2023/12/09 08:37:49;;;;;;;40.20;15.88;;;;;;;4.68;100.00;97841.91;5126778;27;20102;-76
2023/12/09 08:40:15;;;;;;;30.75;13.95;;;;;;;4.76;100.00;97853.16;5127259;27;20035;-76
2023/12/09 08:42:43;;;;;;;27.45;12.18;;;;;;;4.61;100.00;97848.38;5127524;27;20478;-76
2023/12/09 08:45:10;;;;;;;30.63;14.48;;;;;;;4.61;100.00;97851.03;5127246;27;20041;-76
2023/12/09 08:47:36;;;;;;;28.23;14.60;;;;;;;4.69;100.00;97848.97;5098287;28;20016;-75
2023/12/09 08:50:04;;;;;;;31.25;14.32;;;;;;;4.79;100.00;97846.88;5106614;28;20364;-75
2023/12/09 08:52:31;;;;;;;29.15;14.15;;;;;;;4.85;100.00;97852.81;5108683;28;20039;-74
2023/12/09 08:54:57;;;;;;;45.95;15.93;;;;;;;4.77;100.00;97849.56;5125459;27;20037;-73
2023/12/09 08:57:23;;;;;;;31.30;15.60;;;;;;;4.84;100.00;97842.25;5090067;28;20422;-75
2023/12/09 08:59:51;;;;;;;25.63;13.13;;;;;;;4.89;100.00;97841.19;5118461;28;20050;-76
2023/12/09 09:02:17;;;;;;;25.60;12.88;;;;;;;4.86;100.00;97838.63;5126823;28;20031;-76
2023/12/09 09:04:42;;;;;;;27.38;13.40;;;;;;;4.77;100.00;97823.06;5126869;28;20084;-76
2023/12/09 09:07:09;;;;;;;29.98;14.60;;;;;;;4.82;100.00;97837.03;5111360;27;20062;-77
2023/12/09 09:09:35;;;;;;;24.50;12.80;;;;;;;4.74;100.00;97833.75;5125594;28;20027;-76
2023/12/09 09:12:00;;;;;;;25.52;12.73;;;;;;;4.81;100.00;97826.47;5126855;28;20034;-76
2023/12/09 09:14:26;;;;;;;28.40;13.23;;;;;;;4.91;100.00;97820.81;5128159;27;20027;-76
2023/12/09 09:16:52;;;;;;;29.80;14.85;;;;;;;4.92;100.00;97813.72;5126743;28;20031;-74
2023/12/09 09:19:17;;;;;;;25.95;12.98;;;;;;;5.10;100.00;97806.91;5118980;27;20031;-74
2023/12/09 09:21:43;;;;;;;25.58;12.98;;;;;;;5.08;100.00;97804.28;5106855;28;20114;-75
2023/12/09 09:24:08;;;;;;;23.10;12.23;;;;;;;5.14;100.00;97811.16;5102234;28;20050;-76
2023/12/09 09:26:34;;;;;;;27.52;13.90;;;;;;;5.08;100.00;97808.72;5106549;28;20031;-74
2023/12/09 09:29:00;;;;;;;30.20;15.32;;;;;;;5.25;100.00;97803.69;5106381;28;20023;-75
2023/12/09 09:31:26;;;;;;;29.88;14.82;;;;;;;5.26;100.00;97798.31;5089053;28;20019;-73
2023/12/09 09:33:51;;;;;;;25.90;13.45;;;;;;;5.41;100.00;97802.22;5109577;28;20035;-73
2023/12/09 09:36:18;;;;;;;28.35;14.13;;;;;;;5.40;100.00;97790.72;5109319;28;20031;-75
2023/12/09 09:38:47;;;;;;;33.33;15.25;;;;;;;5.48;100.00;97793.06;5127553;28;20102;-76
2023/12/09 09:41:31;;;;;;;29.77;15.77;;;;;;;5.57;100.00;97787.41;5127217;28;20501;-76
2023/12/09 09:44:18;;;;;;;44.20;20.65;;;;;;;5.61;100.00;97791.69;5107591;28;20106;-79
2023/12/09 09:46:44;;;;;;;34.22;17.23;;;;;;;5.57;100.00;97790.06;5105127;28;20022;-78
2023/12/09 09:49:10;;;;;;;36.78;17.77;;;;;;;5.55;100.00;97786.63;5095725;28;20028;-82
2023/12/09 09:51:38;;;;;;;37.28;18.45;;;;;;;5.51;100.00;97782.34;5108750;27;20354;-80
2023/12/09 09:54:37;;;;;;;31.08;17.05;;;;;;;5.42;100.00;97788.00;5100248;28;20076;-82
2023/12/09 09:57:03;;;;;;;49.47;22.55;;;;;;;5.29;100.00;97786.75;5085237;27;20183;-79
2023/12/09 09:59:30;;;;;;;60.22;30.02;;;;;;;5.28;100.00;97791.19;5101210;27;20027;-79
2023/12/09 10:01:56;;;;;;;45.25;21.23;;;;;;;5.05;100.00;97782.31;5105258;27;20034;-78
2023/12/09 10:04:22;;;;;;;37.33;16.55;;;;;;;5.01;100.00;97786.03;5106566;28;20024;-79
2023/12/09 10:06:48;;;;;;;31.27;15.13;;;;;;;4.89;100.00;97790.81;5101007;27;20023;-81
2023/12/09 10:09:14;;;;;;;42.45;18.63;;;;;;;4.70;100.00;97776.53;5110542;28;20402;-81
2023/12/09 10:11:40;;;;;;;36.20;17.55;;;;;;;4.82;100.00;97786.69;5106769;27;20037;-77
2023/12/09 10:14:05;;;;;;;38.08;16.92;;;;;;;4.86;100.00;97783.00;5101048;27;20122;-79
2023/12/09 10:16:33;;;;;;;33.38;14.07;;;;;;;4.85;100.00;97778.63;5102569;28;20163;-80
2023/12/09 10:18:58;;;;;;;29.25;13.85;;;;;;;4.97;100.00;97779.97;5104093;27;20023;-80
2023/12/09 10:21:24;;;;;;;27.45;13.13;;;;;;;5.09;100.00;97776.88;5120725;27;20023;-77
2023/12/09 10:23:50;;;;;;;25.45;12.80;;;;;;;5.14;100.00;97772.25;5119832;27;20383;-75
2023/12/09 10:26:16;;;;;;;21.35;11.02;;;;;;;5.20;100.00;97779.16;5111597;27;20421;-75
2023/12/09 10:28:42;;;;;;;21.48;11.45;;;;;;;5.10;100.00;97775.09;5112293;27;20083;-74
2023/12/09 10:31:07;;;;;;;31.83;13.68;;;;;;;5.15;100.00;97770.47;5129375;27;20099;-75
2023/12/09 10:33:34;;;;;;;36.38;16.55;;;;;;;5.22;100.00;97769.34;5112207;27;20083;-75
2023/12/09 10:36:00;;;;;;;25.83;11.48;;;;;;;5.26;100.00;97777.09;5129501;27;20031;-76
2023/12/09 10:38:30;;;;;;;28.10;13.07;;;;;;;4.98;100.00;97771.09;5112129;27;20046;-75
2023/12/09 10:40:56;;;;;;;25.08;12.77;;;;;;;4.80;100.00;97761.13;5111960;27;20027;-75
2023/12/09 10:43:23;;;;;;;28.70;13.48;;;;;;;4.80;100.00;97754.06;5129224;27;20019;-74
2023/12/09 10:45:49;;;;;;;28.80;13.80;;;;;;;4.78;100.00;97747.97;5129336;27;20030;-76
2023/12/09 10:48:15;;;;;;;30.02;14.45;;;;;;;4.86;100.00;97756.50;5129344;27;20123;-74
2023/12/09 10:50:43;;;;;;;36.05;16.77;;;;;;;4.65;100.00;97753.75;5129056;27;20454;-74
2023/12/09 10:53:09;;;;;;;37.22;17.08;;;;;;;4.48;100.00;97756.13;5112045;27;20810;-74
2023/12/09 10:55:34;;;;;;;29.58;14.52;;;;;;;4.54;100.00;97745.31;5129516;27;20031;-75
2023/12/09 10:58:02;;;;;;;32.00;13.65;;;;;;;4.49;100.00;97755.22;5130196;27;20047;-75
2023/12/09 11:00:30;;;;;;;28.83;14.43;;;;;;;4.56;100.00;97757.56;5128597;27;20048;-74
2023/12/09 11:02:56;;;;;;;29.90;14.60;;;;;;;4.55;100.00;97745.28;5128820;27;20125;-75
2023/12/09 11:05:22;;;;;;;29.33;13.98;;;;;;;4.42;100.00;97743.09;5128796;27;20109;-75
2023/12/09 11:07:49;;;;;;;25.77;12.73;;;;;;;4.30;100.00;97753.19;5128979;27;20027;-75
2023/12/09 11:10:15;;;;;;;30.73;14.80;;;;;;;4.31;100.00;97746.09;5111916;27;20038;-74
2023/12/09 11:12:44;;;;;;;32.63;14.50;;;;;;;4.36;100.00;97745.03;5128852;27;20118;-75